createdAt,value
2017-04-04T00:00:39.297Z,101787.58
2017-04-04T00:01:37.192Z,101784.44
2017-04-04T00:02:35.040Z,101784.07
2017-04-04T00:03:32.881Z,101785.78
2017-04-04T00:04:30.748Z,101786.09
2017-04-04T00:05:28.751Z,101780.85
2017-04-04T00:06:26.614Z,101779.13
2017-04-04T00:07:24.555Z,101771.86
2017-04-04T00:08:22.397Z,101777.83
2017-04-04T00:09:20.329Z,101778.30
2017-04-04T00:10:18.237Z,101780.39
2017-04-04T00:11:16.085Z,101775.95
2017-04-04T00:12:13.931Z,101779.27
2017-04-04T00:13:11.786Z,101774.11
2017-04-04T00:14:09.828Z,101770.92
2017-04-04T00:15:07.796Z,101767.61
2017-04-04T00:16:05.665Z,101768.09
2017-04-04T00:17:03.677Z,101764.08
2017-04-04T00:18:01.545Z,101765.23
2017-04-04T00:18:59.443Z,101764.12
2017-04-04T00:19:57.253Z,101765.16
2017-04-04T00:20:55.140Z,101767.19
2017-04-04T00:21:53.017Z,101769.50
2017-04-04T00:22:50.871Z,101772.97
2017-04-04T00:23:48.710Z,101767.17
2017-04-04T00:24:46.609Z,101775.02
2017-04-04T00:25:44.533Z,101772.21
2017-04-04T00:26:42.463Z,101771.28
2017-04-04T00:27:40.296Z,101770.34
2017-04-04T00:28:38.155Z,101772.63
2017-04-04T00:29:35.978Z,101768.73
2017-04-04T00:30:34.004Z,101772.30
2017-04-04T00:31:31.894Z,101768.83
2017-04-04T00:32:29.964Z,101774.38
2017-04-04T00:33:27.831Z,101772.56
2017-04-04T00:34:25.651Z,101769.48
2017-04-04T00:35:23.600Z,101772.91
2017-04-04T00:36:21.449Z,101772.56
2017-04-04T00:37:19.260Z,101768.74
2017-04-04T00:38:17.120Z,101772.05
2017-04-04T00:39:15.220Z,101767.81
2017-04-04T00:40:13.071Z,101766.83
2017-04-04T00:41:11.021Z,101759.83
2017-04-04T00:42:09.035Z,101767.23
2017-04-04T00:43:06.936Z,101764.48
2017-04-04T00:44:04.819Z,101764.02
2017-04-04T00:45:02.712Z,101768.08
2017-04-04T00:46:00.537Z,101762.80
2017-04-04T00:46:58.483Z,101765.16
2017-04-04T00:47:56.333Z,101758.71
2017-04-04T00:48:54.184Z,101760.02
2017-04-04T00:49:52.061Z,101755.37
2017-04-04T00:50:49.911Z,101760.20
2017-04-04T00:51:47.727Z,101755.20
2017-04-04T00:52:45.540Z,101762.77
2017-04-04T00:53:43.505Z,101759.05
2017-04-04T00:54:41.399Z,101751.60
2017-04-04T00:55:39.306Z,101755.36
2017-04-04T00:56:37.200Z,101756.63
2017-04-04T00:57:35.065Z,101755.88
2017-04-04T00:58:32.912Z,101751.16
2017-04-04T00:59:30.750Z,101753.59
2017-04-04T01:00:28.619Z,101741.42
2017-04-04T01:01:26.521Z,101744.30
2017-04-04T01:02:24.390Z,101747.16
2017-04-04T01:03:22.316Z,101743.73
2017-04-04T01:04:20.192Z,101746.93
2017-04-04T01:05:18.008Z,101743.59
2017-04-04T01:06:15.848Z,101740.28
2017-04-04T01:07:13.789Z,101748.26
2017-04-04T01:08:11.661Z,101743.75
2017-04-04T01:09:09.469Z,101745.08
2017-04-04T01:10:07.697Z,101739.45
2017-04-04T01:11:05.668Z,101734.92
2017-04-04T01:12:03.524Z,101736.98
2017-04-04T01:13:01.417Z,101728.70
2017-04-04T01:13:59.273Z,101735.17
2017-04-04T01:14:57.104Z,101739.93
2017-04-04T01:15:54.924Z,101737.34
2017-04-04T01:16:52.765Z,101734.14
2017-04-04T01:17:50.735Z,101734.92
2017-04-04T01:18:48.620Z,101735.08
2017-04-04T01:19:46.444Z,101742.50
2017-04-04T01:20:44.361Z,101737.34
2017-04-04T01:21:42.208Z,101736.73
2017-04-04T01:22:40.104Z,101737.59
2017-04-04T01:23:37.948Z,101737.92
2017-04-04T01:24:35.894Z,101745.27
2017-04-04T01:25:33.809Z,101734.17
2017-04-04T01:26:31.676Z,101733.83
2017-04-04T01:27:29.573Z,101735.13
2017-04-04T01:28:27.457Z,101731.14
2017-04-04T01:29:25.272Z,101730.96
2017-04-04T01:30:23.159Z,101733.71
2017-04-04T01:31:21.215Z,101737.63
2017-04-04T01:32:19.096Z,101737.48
2017-04-04T01:33:17.025Z,101737.78
2017-04-04T01:34:14.871Z,101740.47
2017-04-04T01:35:12.790Z,101744.09
2017-04-04T01:36:10.685Z,101744.83
2017-04-04T01:37:08.511Z,101737.95
2017-04-04T01:38:06.360Z,101743.77
2017-04-04T01:39:04.676Z,101735.51
2017-04-04T01:40:02.535Z,101740.14
2017-04-04T01:41:00.420Z,101736.66
2017-04-04T01:41:58.308Z,101740.52
2017-04-04T01:42:56.227Z,101737.23
2017-04-04T01:43:54.043Z,101732.07
2017-04-04T01:44:51.931Z,101732.83
2017-04-04T01:45:49.878Z,101734.47
2017-04-04T01:46:47.751Z,101735.06
2017-04-04T01:47:45.672Z,101735.04
2017-04-04T01:48:43.533Z,101732.38
2017-04-04T01:49:41.579Z,101727.23
2017-04-04T01:50:39.463Z,101727.80
2017-04-04T01:51:37.400Z,101727.25
2017-04-04T01:52:35.256Z,101731.25
2017-04-04T01:53:33.079Z,101732.09
2017-04-04T01:54:31.003Z,101725.08
2017-04-04T01:55:28.962Z,101724.89
2017-04-04T01:56:26.935Z,101717.57
2017-04-04T01:57:24.792Z,101722.45
2017-04-04T01:58:22.688Z,101723.58
2017-04-04T01:59:20.587Z,101722.66
2017-04-04T02:00:18.850Z,101716.16
2017-04-04T02:01:16.728Z,101714.80
2017-04-04T02:02:14.612Z,101725.48
2017-04-04T02:03:12.632Z,101715.83
2017-04-04T02:04:10.492Z,101716.98
2017-04-04T02:05:08.392Z,101720.75
2017-04-04T02:06:06.308Z,101717.49
2017-04-04T02:07:04.184Z,101716.51
2017-04-04T02:08:02.007Z,101710.98
2017-04-04T02:08:59.948Z,101713.27
2017-04-04T02:09:57.802Z,101712.08
2017-04-04T02:10:55.722Z,101707.66
2017-04-04T02:11:53.620Z,101708.55
2017-04-04T02:12:51.492Z,101710.67
2017-04-04T02:13:49.471Z,101716.78
2017-04-04T02:14:47.372Z,101711.27
2017-04-04T02:15:45.297Z,101712.33
2017-04-04T02:16:43.207Z,101710.06
2017-04-04T02:17:41.208Z,101713.91
2017-04-04T02:18:39.056Z,101708.45
2017-04-04T02:19:36.963Z,101704.11
2017-04-04T02:20:34.855Z,101705.16
2017-04-04T02:21:32.786Z,101713.03
2017-04-04T02:22:30.646Z,101707.02
2017-04-04T02:23:28.567Z,101709.32
2017-04-04T02:24:26.408Z,101713.60
2017-04-04T02:25:24.313Z,101708.18
2017-04-04T02:26:22.179Z,101712.38
2017-04-04T02:27:20.056Z,101712.41
2017-04-04T02:28:17.939Z,101717.21
2017-04-04T02:29:15.857Z,101718.63
2017-04-04T02:30:13.884Z,101713.02
2017-04-04T02:31:11.780Z,101719.92
2017-04-04T02:32:09.723Z,101718.48
2017-04-04T02:33:07.591Z,101714.91
2017-04-04T02:34:05.436Z,101712.29
2017-04-04T02:35:03.320Z,101711.80
2017-04-04T02:36:01.202Z,101716.92
2017-04-04T02:36:59.118Z,101716.92
2017-04-04T02:37:57.246Z,101715.97
2017-04-04T02:38:55.095Z,101712.80
2017-04-04T02:39:53.007Z,101706.53
2017-04-04T02:40:50.886Z,101706.30
2017-04-04T02:41:48.741Z,101709.14
2017-04-04T02:42:46.568Z,101708.26
2017-04-04T02:43:44.447Z,101704.95
2017-04-04T02:44:42.396Z,101706.17
2017-04-04T02:45:40.224Z,101705.01
2017-04-04T02:46:38.135Z,101702.00
2017-04-04T02:47:36.000Z,101701.25
2017-04-04T02:48:33.897Z,101701.56
2017-04-04T02:49:31.813Z,101703.06
2017-04-04T02:50:29.707Z,101705.78
2017-04-04T02:51:27.598Z,101704.39
2017-04-04T02:52:25.450Z,101708.62
2017-04-04T02:53:23.321Z,101711.15
2017-04-04T02:54:21.178Z,101710.03
2017-04-04T02:55:19.035Z,101698.14
2017-04-04T02:56:16.980Z,101699.20
2017-04-04T02:57:14.833Z,101704.63
2017-04-04T02:58:12.754Z,101705.82
2017-04-04T02:59:10.741Z,101707.69
2017-04-04T03:00:08.657Z,101701.42
2017-04-04T03:01:06.512Z,101706.80
2017-04-04T03:02:04.474Z,101704.52
2017-04-04T03:03:02.402Z,101704.64
2017-04-04T03:04:00.228Z,101697.28
2017-04-04T03:04:58.084Z,101704.92
2017-04-04T03:05:56.050Z,101700.45
2017-04-04T03:06:53.965Z,101701.81
2017-04-04T03:07:51.780Z,101711.27
2017-04-04T03:08:49.686Z,101704.95
2017-04-04T03:09:47.557Z,101697.55
2017-04-04T03:10:45.583Z,101698.36
2017-04-04T03:11:43.549Z,101697.66
2017-04-04T03:12:41.468Z,101694.03
2017-04-04T03:13:39.445Z,101693.63
2017-04-04T03:14:37.268Z,101692.72
2017-04-04T03:15:35.172Z,101692.31
2017-04-04T03:16:32.983Z,101694.54
2017-04-04T03:17:30.893Z,101697.95
2017-04-04T03:18:28.748Z,101691.58
2017-04-04T03:19:26.632Z,101685.92
2017-04-04T03:20:24.517Z,101691.84
2017-04-04T03:21:22.368Z,101687.00
2017-04-04T03:22:20.225Z,101688.94
2017-04-04T03:23:18.120Z,101684.67
2017-04-04T03:24:16.027Z,101685.61
2017-04-04T03:25:13.907Z,101682.00
2017-04-04T03:26:11.839Z,101682.28
2017-04-04T03:27:09.787Z,101685.03
2017-04-04T03:28:07.912Z,101680.94
2017-04-04T03:29:05.962Z,101678.73
2017-04-04T03:30:03.837Z,101677.52
2017-04-04T03:31:01.858Z,101675.19
2017-04-04T03:31:59.731Z,101677.20
2017-04-04T03:32:57.681Z,101666.68
2017-04-04T03:33:55.576Z,101667.89
2017-04-04T03:34:53.486Z,101669.81
2017-04-04T03:35:51.320Z,101673.86
2017-04-04T03:36:49.236Z,101673.44
2017-04-04T03:37:47.181Z,101678.72
2017-04-04T03:38:45.025Z,101676.84
2017-04-04T03:39:42.875Z,101665.04
2017-04-04T03:40:40.732Z,101675.35
2017-04-04T03:41:38.675Z,101677.20
2017-04-04T03:42:36.508Z,101672.28
2017-04-04T03:43:34.437Z,101678.66
2017-04-04T03:44:32.290Z,101672.92
2017-04-04T03:45:30.223Z,101679.95
2017-04-04T03:46:28.052Z,101676.64
2017-04-04T03:47:25.867Z,101673.19
2017-04-04T03:48:23.788Z,101673.80
2017-04-04T03:49:21.640Z,101670.66
2017-04-04T03:50:19.585Z,101671.48
2017-04-04T03:51:17.470Z,101670.14
2017-04-04T03:52:15.290Z,101670.20
2017-04-04T03:53:13.196Z,101680.63
2017-04-04T03:54:11.073Z,101679.64
2017-04-04T03:55:08.984Z,101681.31
2017-04-04T03:56:06.833Z,101680.39
2017-04-04T03:57:04.687Z,101678.07
2017-04-04T03:58:02.628Z,101677.77
2017-04-04T03:59:00.471Z,101679.70
2017-04-04T03:59:58.324Z,101677.15
2017-04-04T04:00:56.164Z,101681.59
2017-04-04T04:01:54.056Z,101682.62
2017-04-04T04:02:51.899Z,101689.56
2017-04-04T04:03:49.888Z,101682.28
2017-04-04T04:04:47.814Z,101681.31
2017-04-04T04:05:45.676Z,101683.64
2017-04-04T04:06:43.568Z,101672.21
2017-04-04T04:07:41.464Z,101676.16
2017-04-04T04:08:39.336Z,101673.22
2017-04-04T04:09:37.224Z,101678.57
2017-04-04T04:10:35.092Z,101670.14
2017-04-04T04:11:32.925Z,101679.80
2017-04-04T04:12:30.818Z,101678.78
2017-04-04T04:13:28.658Z,101683.45
2017-04-04T04:14:26.512Z,101677.58
2017-04-04T04:15:24.402Z,101671.66
2017-04-04T04:16:22.380Z,101671.12
2017-04-04T04:17:20.189Z,101675.73
2017-04-04T04:18:18.045Z,101676.31
2017-04-04T04:19:15.935Z,101683.77
2017-04-04T04:20:13.861Z,101692.52
2017-04-04T04:21:11.719Z,101685.47
2017-04-04T04:22:09.564Z,101682.37
2017-04-04T04:23:07.523Z,101677.59
2017-04-04T04:24:05.403Z,101679.58
2017-04-04T04:25:03.279Z,101688.05
2017-04-04T04:26:01.129Z,101683.40
2017-04-04T04:26:59.018Z,101681.59
2017-04-04T04:27:56.851Z,101691.86
2017-04-04T04:28:54.799Z,101686.94
2017-04-04T04:29:52.712Z,101682.97
2017-04-04T04:30:50.606Z,101684.11
2017-04-04T04:31:48.463Z,101683.72
2017-04-04T04:32:46.297Z,101685.21
2017-04-04T04:33:44.124Z,101685.30
2017-04-04T04:34:42.034Z,101684.54
2017-04-04T04:35:39.862Z,101686.11
2017-04-04T04:36:37.774Z,101686.72
2017-04-04T04:37:35.712Z,101689.86
2017-04-04T04:38:33.595Z,101686.75
2017-04-04T04:39:31.486Z,101691.26
2017-04-04T04:40:29.383Z,101686.12
2017-04-04T04:41:27.247Z,101691.35
2017-04-04T04:42:25.147Z,101702.20
2017-04-04T04:43:23.029Z,101694.50
2017-04-04T04:44:20.870Z,101698.04
2017-04-04T04:45:19.013Z,101698.08
2017-04-04T04:46:16.906Z,101694.64
2017-04-04T04:47:14.760Z,101694.89
2017-04-04T04:48:12.790Z,101702.79
2017-04-04T04:49:10.912Z,101704.41
2017-04-04T04:50:08.824Z,101698.33
2017-04-04T04:51:06.668Z,101697.63
2017-04-04T04:52:04.541Z,101693.23
2017-04-04T04:53:02.410Z,101696.91
2017-04-04T04:54:00.225Z,101689.34
2017-04-04T04:54:58.060Z,101694.55
2017-04-04T04:55:55.973Z,101695.66
2017-04-04T04:56:53.817Z,101697.00
2017-04-04T04:57:51.647Z,101689.56
2017-04-04T04:58:49.608Z,101688.91
2017-04-04T04:59:47.536Z,101692.64
2017-04-04T05:00:45.504Z,101689.08
2017-04-04T05:01:43.383Z,101692.70
2017-04-04T05:02:41.280Z,101694.64
2017-04-04T05:03:39.146Z,101690.95
2017-04-04T05:04:37.057Z,101694.09
2017-04-04T05:05:34.928Z,101691.16
2017-04-04T05:06:32.910Z,101695.57
2017-04-04T05:07:30.815Z,101693.33
2017-04-04T05:08:28.756Z,101700.61
2017-04-04T05:09:26.666Z,101699.45
2017-04-04T05:10:24.484Z,101702.20
2017-04-04T05:11:22.318Z,101699.16
2017-04-04T05:12:20.208Z,101705.61
2017-04-04T05:13:18.072Z,101697.31
2017-04-04T05:14:15.954Z,101700.75
2017-04-04T05:15:13.837Z,101701.91
2017-04-04T05:16:11.728Z,101703.67
2017-04-04T05:17:09.700Z,101703.65
2017-04-04T05:18:07.571Z,101703.20
2017-04-04T05:19:05.500Z,101704.13
2017-04-04T05:20:03.437Z,101694.92
2017-04-04T05:21:01.359Z,101696.33
2017-04-04T05:21:59.425Z,101699.47
2017-04-04T05:24:08.264Z,101699.22
2017-04-04T05:25:06.134Z,101697.80
2017-04-04T05:26:03.996Z,101717.81
2017-04-04T05:27:01.805Z,101712.84
2017-04-04T05:27:59.839Z,101720.75
2017-04-04T05:28:57.705Z,101715.67
2017-04-04T05:29:55.609Z,101719.28
2017-04-04T05:30:53.516Z,101720.79
2017-04-04T05:31:51.359Z,101723.07
2017-04-04T05:32:49.288Z,101719.88
2017-04-04T05:33:47.120Z,101713.20
2017-04-04T05:34:44.982Z,101717.73
2017-04-04T05:35:44.296Z,101717.56
2017-04-04T05:36:42.313Z,101717.59
2017-04-04T05:37:40.143Z,101720.23
2017-04-04T05:38:38.022Z,101722.52
2017-04-04T05:39:35.857Z,101719.16
2017-04-04T05:40:33.723Z,101717.86
2017-04-04T05:41:31.648Z,101718.81
2017-04-04T05:42:29.495Z,101723.59
2017-04-04T05:43:27.425Z,101720.95
2017-04-04T05:44:25.390Z,101720.69
2017-04-04T05:45:23.354Z,101725.18
2017-04-04T05:46:21.249Z,101720.16
2017-04-04T05:47:19.205Z,101718.59
2017-04-04T05:48:17.064Z,101712.79
2017-04-04T05:49:14.940Z,101716.08
2017-04-04T05:50:12.859Z,101719.21
2017-04-04T05:51:10.676Z,101723.36
2017-04-04T05:52:09.729Z,101723.56
2017-04-04T05:53:07.627Z,101721.06
2017-04-04T05:54:05.472Z,101719.74
2017-04-04T05:55:03.356Z,101721.90
2017-04-04T05:56:01.276Z,101719.61
2017-04-04T05:56:59.168Z,101723.97
2017-04-04T05:57:57.029Z,101720.69
2017-04-04T05:58:54.924Z,101722.67
2017-04-04T05:59:52.815Z,101718.80
2017-04-04T06:00:50.684Z,101719.65
2017-04-04T06:01:48.621Z,101722.47
2017-04-04T06:02:46.521Z,101722.30
2017-04-04T06:03:44.399Z,101723.22
2017-04-04T06:04:42.309Z,101725.18
2017-04-04T06:05:40.214Z,101728.91
2017-04-04T06:06:38.132Z,101728.06
2017-04-04T06:07:35.993Z,101723.54
2017-04-04T06:08:33.932Z,101725.83
2017-04-04T06:09:31.800Z,101727.20
2017-04-04T06:10:30.101Z,101725.95
2017-04-04T06:11:28.326Z,101725.43
2017-04-04T06:12:26.272Z,101726.45
2017-04-04T06:13:25.201Z,101720.44
2017-04-04T06:14:23.209Z,101724.19
2017-04-04T06:15:21.153Z,101722.51
2017-04-04T06:16:19.225Z,101726.95
2017-04-04T06:17:17.108Z,101721.66
2017-04-04T06:18:14.993Z,101720.97
2017-04-04T06:19:12.871Z,101723.89
2017-04-04T06:20:10.760Z,101730.00
2017-04-04T06:21:08.635Z,101732.97
2017-04-04T06:22:06.492Z,101729.94
2017-04-04T06:23:04.353Z,101732.80
2017-04-04T06:24:02.222Z,101737.27
2017-04-04T06:25:00.108Z,101732.27
2017-04-04T06:25:58.016Z,101728.27
2017-04-04T06:26:55.968Z,101733.98
2017-04-04T06:27:53.849Z,101727.92
2017-04-04T06:28:51.758Z,101738.41
2017-04-04T06:29:49.605Z,101733.59
2017-04-04T06:30:47.494Z,101734.09
2017-04-04T06:31:45.374Z,101730.84
2017-04-04T06:32:43.196Z,101731.69
2017-04-04T06:33:41.040Z,101729.65
2017-04-04T06:34:39.058Z,101729.03
2017-04-04T06:35:36.924Z,101730.09
2017-04-04T06:36:34.820Z,101730.23
2017-04-04T06:37:32.689Z,101732.23
2017-04-04T06:38:30.530Z,101732.42
2017-04-04T06:39:28.434Z,101731.08
2017-04-04T06:40:26.340Z,101731.08
2017-04-04T06:41:24.157Z,101730.02
2017-04-04T06:42:21.983Z,101728.45
2017-04-04T06:43:19.927Z,101728.08
2017-04-04T06:44:17.844Z,101729.92
2017-04-04T06:45:15.764Z,101725.38
2017-04-04T06:46:13.659Z,101733.78
2017-04-04T06:47:15.828Z,101734.33
2017-04-04T06:48:13.903Z,101734.38
2017-04-04T06:49:11.792Z,101727.58
2017-04-04T06:50:10.167Z,101734.14
2017-04-04T06:51:08.023Z,101736.30
2017-04-04T06:52:05.896Z,101736.82
2017-04-04T06:53:03.867Z,101731.08
2017-04-04T06:54:01.881Z,101734.89
2017-04-04T06:54:59.808Z,101737.14
2017-04-04T06:55:57.676Z,101736.70
2017-04-04T06:56:55.597Z,101731.86
2017-04-04T06:57:53.486Z,101733.73
2017-04-04T06:58:51.453Z,101735.23
2017-04-04T06:59:49.415Z,101727.05
2017-04-04T07:00:47.424Z,101725.07
2017-04-04T07:01:45.333Z,101723.77
2017-04-04T07:02:45.303Z,101720.50
2017-04-04T07:03:43.339Z,101719.29
2017-04-04T07:04:41.361Z,101722.83
2017-04-04T07:05:39.498Z,101723.30
2017-04-04T07:06:37.539Z,101721.85
2017-04-04T07:07:35.441Z,101727.53
2017-04-04T07:08:33.460Z,101728.22
2017-04-04T07:09:31.328Z,101720.18
2017-04-04T07:10:29.168Z,101725.55
2017-04-04T07:11:27.011Z,101724.02
2017-04-04T07:12:24.956Z,101727.18
2017-04-04T07:13:22.849Z,101729.31
2017-04-04T07:14:20.788Z,101730.74
2017-04-04T07:15:18.717Z,101722.58
2017-04-04T07:16:16.588Z,101724.14
2017-04-04T07:17:14.420Z,101726.86
2017-04-04T07:18:12.348Z,101722.30
2017-04-04T07:19:10.261Z,101727.91
2017-04-04T07:20:08.180Z,101723.63
2017-04-04T07:21:06.101Z,101724.31
2017-04-04T07:22:03.969Z,101721.27
2017-04-04T07:23:01.870Z,101721.26
2017-04-04T07:23:59.775Z,101719.36
2017-04-04T07:24:57.803Z,101724.66
2017-04-04T07:25:55.800Z,101723.80
2017-04-04T07:26:53.661Z,101719.85
2017-04-04T07:27:51.565Z,101726.52
2017-04-04T07:28:49.439Z,101728.81
2017-04-04T07:29:47.342Z,101722.31
2017-04-04T07:30:45.245Z,101725.59
2017-04-04T07:31:43.187Z,101723.00
2017-04-04T07:32:41.128Z,101724.71
2017-04-04T07:33:38.980Z,101727.53
2017-04-04T07:34:36.849Z,101726.11
2017-04-04T07:35:34.702Z,101731.59
2017-04-04T07:36:32.606Z,101721.48
2017-04-04T07:37:30.501Z,101724.13
2017-04-04T07:38:28.350Z,101725.98
2017-04-04T07:39:26.222Z,101729.22
2017-04-04T07:40:24.180Z,101729.56
2017-04-04T07:41:22.125Z,101733.29
2017-04-04T07:42:20.080Z,101736.51
2017-04-04T07:43:18.005Z,101740.30
2017-04-04T07:44:15.957Z,101736.70
2017-04-04T07:45:13.835Z,101738.06
2017-04-04T07:46:11.752Z,101733.53
2017-04-04T07:47:09.636Z,101737.39
2017-04-04T07:48:07.542Z,101735.59
2017-04-04T07:49:05.419Z,101741.89
2017-04-04T07:50:03.506Z,101740.80
2017-04-04T07:51:01.433Z,101736.41
2017-04-04T07:51:59.383Z,101735.92
2017-04-04T07:52:57.230Z,101736.06
2017-04-04T07:53:55.137Z,101736.95
2017-04-04T07:54:53.062Z,101736.92
2017-04-04T07:55:50.967Z,101740.08
2017-04-04T07:56:48.825Z,101743.04
2017-04-04T07:57:46.751Z,101735.51
2017-04-04T07:58:44.707Z,101735.87
2017-04-04T07:59:42.605Z,101736.58
2017-04-04T08:00:40.521Z,101737.86
2017-04-04T08:01:38.450Z,101736.92
2017-04-04T08:02:36.493Z,101740.70
2017-04-04T08:03:34.416Z,101740.22
2017-04-04T08:04:32.333Z,101736.59
2017-04-04T08:05:30.191Z,101740.98
2017-04-04T08:06:28.101Z,101740.70
2017-04-04T08:07:25.972Z,101744.14
2017-04-04T08:08:23.847Z,101740.62
2017-04-04T08:09:21.722Z,101742.88
2017-04-04T08:10:19.771Z,101747.50
2017-04-04T08:11:17.682Z,101742.39
2017-04-04T08:12:15.579Z,101746.73
2017-04-04T08:13:13.469Z,101738.61
2017-04-04T08:14:11.411Z,101740.80
2017-04-04T08:15:09.268Z,101741.76
2017-04-04T08:16:07.128Z,101740.89
2017-04-04T08:17:04.992Z,101737.08
2017-04-04T08:18:02.880Z,101735.51
2017-04-04T08:19:00.768Z,101734.57
2017-04-04T08:19:58.667Z,101735.73
2017-04-04T08:20:56.509Z,101731.66
2017-04-04T08:21:54.392Z,101732.28
2017-04-04T08:22:52.293Z,101730.11
2017-04-04T08:23:50.192Z,101734.66
2017-04-04T08:24:48.065Z,101731.84
2017-04-04T08:25:46.008Z,101736.22
2017-04-04T08:26:43.904Z,101729.48
2017-04-04T08:27:41.963Z,101732.95
2017-04-04T08:28:39.821Z,101734.59
2017-04-04T08:29:37.745Z,101735.68
2017-04-04T08:30:35.583Z,101736.76
2017-04-04T08:31:33.537Z,101737.38
2017-04-04T08:32:31.396Z,101738.31
2017-04-04T08:33:29.326Z,101738.84
2017-04-04T08:34:27.193Z,101734.42
2017-04-04T08:35:25.092Z,101731.98
2017-04-04T08:36:22.964Z,101739.20
2017-04-04T08:37:20.814Z,101735.27
2017-04-04T08:38:18.656Z,101734.05
2017-04-04T08:39:16.605Z,101737.09
2017-04-04T08:40:14.504Z,101738.00
2017-04-04T08:41:12.411Z,101737.20
2017-04-04T08:42:10.317Z,101740.40
2017-04-04T08:43:08.248Z,101736.56
2017-04-04T08:44:06.186Z,101742.28
2017-04-04T08:45:04.093Z,101738.14
2017-04-04T08:46:02.013Z,101733.22
2017-04-04T08:46:59.900Z,101740.25
2017-04-04T08:47:57.777Z,101742.05
2017-04-04T08:48:55.636Z,101739.49
2017-04-04T08:49:53.485Z,101738.36
2017-04-04T08:50:51.431Z,101738.90
2017-04-04T08:51:49.328Z,101743.09
2017-04-04T08:52:47.221Z,101738.25
2017-04-04T08:53:45.095Z,101738.13
2017-04-04T08:54:43.037Z,101739.88
2017-04-04T08:55:40.887Z,101737.88
2017-04-04T08:56:38.777Z,101744.45
2017-04-04T08:57:36.695Z,101747.77
2017-04-04T08:58:36.143Z,101740.31
2017-04-04T08:59:33.988Z,101748.50
2017-04-04T09:00:32.000Z,101745.38
2017-04-04T09:01:30.173Z,101745.23
2017-04-04T09:02:28.266Z,101744.56
2017-04-04T09:03:30.307Z,101742.54
2017-04-04T09:04:29.636Z,101746.09
2017-04-04T09:05:27.574Z,101750.45
2017-04-04T09:06:25.482Z,101744.34
2017-04-04T09:07:23.338Z,101747.93
2017-04-04T09:08:21.390Z,101742.48
2017-04-04T09:09:19.323Z,101740.73
2017-04-04T09:10:17.191Z,101746.14
2017-04-04T09:11:15.074Z,101750.17
2017-04-04T09:12:12.908Z,101751.19
2017-04-04T09:13:10.876Z,101749.89
2017-04-04T09:14:08.774Z,101746.27
2017-04-04T09:15:06.669Z,101750.29
2017-04-04T09:16:04.477Z,101746.80
2017-04-04T09:17:02.366Z,101747.95
2017-04-04T09:18:00.284Z,101743.06
2017-04-04T09:18:58.172Z,101741.90
2017-04-04T09:19:56.024Z,101740.61
2017-04-04T09:20:54.005Z,101742.26
2017-04-04T09:21:51.889Z,101742.75
2017-04-04T09:22:49.825Z,101732.98
2017-04-04T09:23:47.720Z,101741.13
2017-04-04T09:24:45.601Z,101741.13
2017-04-04T09:25:43.476Z,101730.81
2017-04-04T09:26:41.349Z,101736.69
2017-04-04T09:27:39.184Z,101740.39
2017-04-04T09:28:37.067Z,101732.84
2017-04-04T09:29:36.089Z,101730.25
2017-04-04T09:30:33.977Z,101729.44
2017-04-04T09:31:31.820Z,101725.08
2017-04-04T09:32:29.675Z,101724.84
2017-04-04T09:33:27.581Z,101728.45
2017-04-04T09:34:25.447Z,101720.90
2017-04-04T09:35:23.303Z,101715.52
2017-04-04T09:36:21.243Z,101717.02
2017-04-04T09:37:19.199Z,101714.59
2017-04-04T09:38:17.209Z,101722.88
2017-04-04T09:39:15.049Z,101710.95
2017-04-04T09:40:13.018Z,101709.53
2017-04-04T09:41:10.872Z,101712.00
2017-04-04T09:42:08.837Z,101709.89
2017-04-04T09:43:06.765Z,101706.23
2017-04-04T09:44:06.896Z,101706.80
2017-04-04T09:45:04.804Z,101714.33
2017-04-04T09:46:02.652Z,101710.97
2017-04-04T09:47:00.575Z,101712.06
2017-04-04T09:47:59.562Z,101714.84
2017-04-04T09:48:57.425Z,101710.87
2017-04-04T09:49:55.313Z,101713.91
2017-04-04T09:50:53.212Z,101713.30
2017-04-04T09:51:51.144Z,101703.36
2017-04-04T09:52:49.045Z,101709.80
2017-04-04T09:53:46.977Z,101708.05
2017-04-04T09:54:44.893Z,101713.08
2017-04-04T09:55:42.888Z,101715.36
2017-04-04T09:56:40.844Z,101709.29
2017-04-04T09:57:38.705Z,101710.64
2017-04-04T09:58:36.573Z,101722.36
2017-04-04T09:59:34.474Z,101711.75
2017-04-04T10:00:38.990Z,101714.16
2017-04-04T10:01:36.898Z,101713.92
2017-04-04T10:02:34.816Z,101711.30
2017-04-04T10:03:32.710Z,101714.20
2017-04-04T10:04:30.672Z,101714.31
2017-04-04T10:05:29.006Z,101712.65
2017-04-04T10:06:26.918Z,101711.91
2017-04-04T10:07:24.876Z,101711.84
2017-04-04T10:08:22.755Z,101709.44
2017-04-04T10:09:20.682Z,101711.02
2017-04-04T10:10:18.608Z,101717.55
2017-04-04T10:11:16.462Z,101713.27
2017-04-04T10:12:14.360Z,101711.42
2017-04-04T10:13:12.248Z,101710.68
2017-04-04T10:14:10.256Z,101705.78
2017-04-04T10:15:08.200Z,101709.47
2017-04-04T10:16:06.136Z,101704.55
2017-04-04T10:17:04.123Z,101706.42
2017-04-04T10:18:02.053Z,101698.67
2017-04-04T10:18:59.964Z,101698.98
2017-04-04T10:19:57.889Z,101701.45
2017-04-04T10:20:55.888Z,101705.90
2017-04-04T10:21:53.768Z,101702.92
2017-04-04T10:22:51.645Z,101706.63
2017-04-04T10:23:49.544Z,101700.78
2017-04-04T10:24:47.409Z,101706.34
2017-04-04T10:25:45.303Z,101709.00
2017-04-04T10:26:43.152Z,101705.90
2017-04-04T10:27:41.115Z,101704.17
2017-04-04T10:28:38.993Z,101698.07
2017-04-04T10:29:36.861Z,101701.53
2017-04-04T10:30:34.785Z,101695.81
2017-04-04T10:31:32.759Z,101692.98
2017-04-04T10:32:30.655Z,101696.27
2017-04-04T10:33:28.559Z,101696.16
2017-04-04T10:34:26.471Z,101704.25
2017-04-04T10:35:24.409Z,101699.69
2017-04-04T10:36:22.352Z,101702.39
2017-04-04T10:37:20.243Z,101699.42
2017-04-04T10:38:18.408Z,101697.69
2017-04-04T10:39:16.300Z,101700.90
2017-04-04T10:40:14.188Z,101697.37
2017-04-04T10:41:12.105Z,101700.20
2017-04-04T10:42:09.973Z,101699.73
2017-04-04T10:43:07.869Z,101697.83
2017-04-04T10:44:05.801Z,101697.59
2017-04-04T10:45:03.689Z,101706.12
2017-04-04T10:46:01.648Z,101705.42
2017-04-04T10:46:59.481Z,101703.54
2017-04-04T10:47:57.387Z,101704.62
2017-04-04T10:48:55.277Z,101708.72
2017-04-04T10:49:53.120Z,101703.51
2017-04-04T10:50:51.001Z,101696.83
2017-04-04T10:51:48.955Z,101704.17
2017-04-04T10:52:46.836Z,101695.20
2017-04-04T10:53:44.762Z,101701.53
2017-04-04T10:54:42.684Z,101697.30
2017-04-04T10:55:40.669Z,101703.08
2017-04-04T10:56:38.559Z,101694.44
2017-04-04T10:57:36.496Z,101699.61
2017-04-04T10:58:34.372Z,101699.02
2017-04-04T10:59:32.244Z,101700.85
2017-04-04T11:00:30.208Z,101696.01
2017-04-04T11:01:28.091Z,101697.16
2017-04-04T11:02:26.018Z,101697.84